Time;durP1;ratioP1;P1;durP2;ratioP2;P2;SDS_P1;SDS_P2;PMS_P1;PMS_P2;Temp;Humidity;BMP_temperature;BMP_pressure;BME280_temperature;BME280_humidity;BME280_pressure;Samples;Min_cycle;Max_cycle;Signal;HPM_P1;HPM_P2
2022/09/14 00:01:45;;;;;;;0.73;0.47;;;;;;;14.30;100.00;99286.88;7387745;19;20053;-78
2022/09/14 00:04:17;;;;;;;0.50;0.50;;;;;;;14.24;100.00;99280.53;7385629;19;20027;-78
2022/09/14 00:06:44;;;;;;;0.85;0.73;;;;;;;14.16;100.00;99283.09;7386928;19;20019;-78
2022/09/14 00:09:15;;;;;;;0.43;0.30;;;;;;;14.09;100.00;99280.06;7387519;19;20019;-77
2022/09/14 00:11:41;;;;;;;3.28;1.17;;;;;;;14.02;100.00;99283.38;7389774;19;20014;-78
2022/09/14 00:14:08;;;;;;;0.25;0.25;;;;;;;13.96;100.00;99279.84;7390965;19;20018;-78
2022/09/14 00:16:39;;;;;;;1.55;0.40;;;;;;;13.96;100.00;99280.59;7388881;19;20019;-78
2022/09/14 00:19:12;;;;;;;0.32;0.32;;;;;;;13.93;100.00;99275.25;7387316;19;20090;-78
2022/09/14 00:21:38;;;;;;;0.68;0.68;;;;;;;13.92;100.00;99276.53;7392886;19;20492;-78
2022/09/14 00:24:06;;;;;;;0.70;0.70;;;;;;;13.90;100.00;99279.88;7386474;19;20022;-78
2022/09/14 00:26:32;;;;;;;0.40;0.25;;;;;;;13.80;100.00;99272.22;7388207;19;20157;-78
2022/09/14 00:29:03;;;;;;;1.02;0.68;;;;;;;13.75;100.00;99275.81;7384497;19;20010;-78
2022/09/14 00:31:34;;;;;;;1.75;0.88;;;;;;;13.73;100.00;99272.78;7387783;19;20950;-78
2022/09/14 00:34:02;;;;;;;;;;;;;;;13.59;100.00;99261.34;7389022;19;20021;-78
2022/09/14 00:36:29;;;;;;;0.68;0.43;;;;;;;13.56;100.00;99259.56;7384430;19;20432;-78
2022/09/14 00:38:56;;;;;;;0.20;0.20;;;;;;;13.65;100.00;99250.91;7383842;19;20473;-78
2022/09/14 00:41:26;;;;;;;3.03;0.60;;;;;;;13.61;100.00;99244.03;7385752;19;20018;-78
2022/09/14 00:44:00;;;;;;;6.95;0.90;;;;;;;13.51;100.00;99240.72;7387665;19;20029;-79
2022/09/14 00:46:29;;;;;;;0.70;0.70;;;;;;;13.51;100.00;99237.19;7387648;19;20010;-78
2022/09/14 00:48:59;;;;;;;0.85;0.57;;;;;;;13.51;100.00;99235.13;7383523;19;20097;-78
2022/09/14 00:51:28;;;;;;;0.43;0.43;;;;;;;13.51;100.00;99235.13;7388269;19;20573;-78
2022/09/14 00:53:54;;;;;;;1.08;0.73;;;;;;;13.47;100.00;99223.44;7387172;19;20554;-77
2022/09/14 00:56:21;;;;;;;1.48;0.80;;;;;;;13.49;100.00;99225.75;7387396;19;20362;-77
2022/09/14 00:58:50;;;;;;;0.30;0.30;;;;;;;13.43;100.00;99220.16;7383909;19;20021;-77
2022/09/14 01:01:16;;;;;;;0.63;0.30;;;;;;;13.37;100.00;99221.44;7387793;19;20635;-77
2022/09/14 01:03:42;;;;;;;0.88;0.63;;;;;;;13.27;100.00;99220.94;7387312;19;20115;-77
2022/09/14 01:06:50;;;;;;;0.40;0.40;;;;;;;13.34;100.00;99214.81;7389450;19;20022;-76
2022/09/14 01:09:31;;;;;;;0.50;0.50;;;;;;;13.33;100.00;99209.75;7382370;19;20039;-77
2022/09/14 01:12:12;;;;;;;0.22;0.22;;;;;;;13.31;100.00;99213.06;7386957;19;20042;-77
2022/09/14 01:14:44;;;;;;;0.60;0.60;;;;;;;13.24;100.00;99205.16;7387926;19;20029;-77
2022/09/14 01:17:19;;;;;;;0.60;0.60;;;;;;;13.20;100.00;99207.47;7385274;19;20018;-77
2022/09/14 01:20:04;;;;;;;0.63;0.63;;;;;;;13.30;100.00;99197.53;7383879;19;20051;-76
2022/09/14 01:22:41;;;;;;;0.50;0.50;;;;;;;13.28;100.00;99191.69;7384728;19;20037;-77
2022/09/14 01:25:27;;;;;;;0.55;0.55;;;;;;;13.23;100.00;99189.66;7387336;19;20022;-77
2022/09/14 01:27:55;;;;;;;0.68;0.68;;;;;;;13.22;100.00;99190.94;7387442;19;20019;-76
2022/09/14 01:30:22;;;;;;;1.20;0.75;;;;;;;13.24;100.00;99188.41;7385329;19;20317;-77
2022/09/14 01:33:06;;;;;;;2.08;0.68;;;;;;;13.14;100.00;99191.97;7384594;19;20530;-77
2022/09/14 01:35:39;;;;;;;0.30;0.30;;;;;;;13.08;100.00;99194.75;7388113;19;20070;-77
2022/09/14 01:38:22;;;;;;;0.40;0.40;;;;;;;13.03;100.00;99195.50;7384214;19;20029;-76
2022/09/14 01:40:49;;;;;;;0.75;0.75;;;;;;;12.95;100.00;99194.47;7386227;19;20451;-76
2022/09/14 01:43:28;;;;;;;0.68;0.68;;;;;;;12.92;100.00;99189.91;7386201;19;20018;-76
2022/09/14 01:46:24;;;;;;;2.28;0.60;;;;;;;12.95;100.00;99195.22;7390017;19;20015;-77
2022/09/14 01:49:05;;;;;;;0.68;0.50;;;;;;;12.88;100.00;99195.75;7388271;19;20022;-77
2022/09/14 01:51:39;;;;;;;0.27;0.27;;;;;;;12.91;100.00;99188.38;7396476;19;20015;-76
2022/09/14 01:54:46;;;;;;;3.83;0.93;;;;;;;12.90;100.00;99192.44;7393870;19;20421;-76
2022/09/14 01:57:22;;;;;;;0.75;0.65;;;;;;;12.98;100.00;99190.66;7391951;19;20022;-77
2022/09/14 01:59:51;;;;;;;3.10;0.98;;;;;;;13.02;100.00;99188.38;7391705;19;20018;-76
2022/09/14 02:02:27;;;;;;;2.05;0.85;;;;;;;13.10;100.00;99191.47;7392550;19;20473;-77
2022/09/14 02:05:02;;;;;;;1.92;0.75;;;;;;;13.13;100.00;99198.81;7394099;19;20015;-77
2022/09/14 02:07:28;;;;;;;0.68;0.68;;;;;;;13.21;100.00;99185.88;7389842;19;20022;-76
2022/09/14 02:09:55;;;;;;;1.00;0.60;;;;;;;13.21;100.00;99183.06;7390774;19;20345;-77
2022/09/14 02:12:21;;;;;;;1.73;0.85;;;;;;;13.25;100.00;99175.94;7389635;19;20034;-76
2022/09/14 02:14:50;;;;;;;2.25;1.10;;;;;;;13.26;100.00;99174.66;7394635;19;20014;-77
2022/09/14 02:17:17;;;;;;;1.80;0.40;;;;;;;13.22;100.00;99170.59;7391506;19;20015;-77
2022/09/14 02:19:48;;;;;;;1.45;1.10;;;;;;;13.07;100.00;99182.06;7389171;19;20029;-76
2022/09/14 02:22:15;;;;;;;6.28;1.92;;;;;;;13.14;100.00;99184.34;7390598;19;20475;-77
2022/09/14 02:24:41;;;;;;;0.50;0.50;;;;;;;13.16;100.00;99186.63;7392321;19;20511;-77
2022/09/14 02:27:07;;;;;;;1.80;0.70;;;;;;;13.22;100.00;99196.53;7392543;19;20296;-76
2022/09/14 02:29:34;;;;;;;0.35;0.35;;;;;;;13.24;100.00;99184.84;7388501;19;20018;-77
2022/09/14 02:32:26;;;;;;;0.77;0.77;;;;;;;13.15;100.00;99185.09;7390957;19;20014;-77
2022/09/14 02:35:28;;;;;;;0.47;0.47;;;;;;;13.18;100.00;99176.47;7392089;19;20073;-77
2022/09/14 02:38:06;;;;;;;;;;;;;;;13.26;100.00;99174.66;7388821;19;20015;-77
2022/09/14 02:40:37;;;;;;;0.75;0.75;;;;;;;13.30;100.00;99177.19;7387795;19;19921;-76
2022/09/14 02:43:07;;;;;;;1.20;0.73;;;;;;;13.22;100.00;99174.16;7387375;19;20599;-77
2022/09/14 02:45:48;;;;;;;0.65;0.65;;;;;;;13.11;100.00;99179.75;7389311;19;20018;-77
2022/09/14 02:48:39;;;;;;;3.28;0.70;;;;;;;13.04;100.00;99176.69;7389491;19;20022;-77
2022/09/14 02:51:14;;;;;;;0.73;0.57;;;;;;;12.98;100.00;99182.28;7392041;19;20018;-77
2022/09/14 02:53:52;;;;;;;0.57;0.50;;;;;;;12.94;100.00;99176.94;7390286;19;20087;-77
2022/09/14 02:56:19;;;;;;;2.10;0.88;;;;;;;12.80;100.00;99174.38;7391536;19;20043;-77
2022/09/14 02:58:45;;;;;;;2.25;0.82;;;;;;;12.50;100.00;99178.91;7386906;19;20032;-77
2022/09/14 03:01:18;;;;;;;0.80;0.80;;;;;;;12.41;100.00;99168.00;7391204;19;20027;-77
2022/09/14 03:03:44;;;;;;;3.60;0.85;;;;;;;12.43;100.00;99171.06;7391024;19;20479;-77
2022/09/14 03:06:10;;;;;;;0.82;0.82;;;;;;;12.51;100.00;99172.09;7395655;19;20512;-77
2022/09/14 03:08:37;;;;;;;0.80;0.60;;;;;;;12.64;100.00;99169.56;7386980;19;20430;-76
2022/09/14 03:11:04;;;;;;;0.65;0.43;;;;;;;12.76;100.00;99165.50;7390484;19;20041;-77
2022/09/14 03:13:30;;;;;;;0.50;0.50;;;;;;;12.85;100.00;99168.81;7391182;19;20516;-78
2022/09/14 03:15:56;;;;;;;0.70;0.70;;;;;;;12.79;100.00;99170.84;7395518;19;20015;-83
2022/09/14 03:18:23;;;;;;;1.15;0.68;;;;;;;13.01;100.00;99172.88;7388311;19;20035;-79
2022/09/14 03:20:49;;;;;;;4.43;0.73;;;;;;;13.13;100.00;99177.22;7392712;19;20018;-79
2022/09/14 03:23:15;;;;;;;1.23;0.52;;;;;;;13.26;100.00;99163.47;7389827;19;20010;-79
2022/09/14 03:25:43;;;;;;;0.50;0.50;;;;;;;13.27;100.00;99159.44;7394222;19;20033;-79
2022/09/14 03:28:10;;;;;;;1.08;0.47;;;;;;;13.40;100.00;99161.69;7390392;19;20015;-79
2022/09/14 03:30:37;;;;;;;1.30;0.63;;;;;;;13.39;100.00;99160.91;7390042;19;20023;-79
2022/09/14 03:33:03;;;;;;;0.95;0.68;;;;;;;13.50;100.00;99149.72;7388483;19;20458;-78
2022/09/14 03:35:30;;;;;;;1.48;0.52;;;;;;;13.59;100.00;99155.03;7392536;19;20376;-79
2022/09/14 03:37:58;;;;;;;1.40;0.65;;;;;;;13.65;100.00;99150.16;7386806;19;20346;-78
2022/09/14 03:40:24;;;;;;;0.30;0.30;;;;;;;13.67;100.00;99147.63;7389667;19;20346;-79
2022/09/14 03:42:51;;;;;;;0.75;0.65;;;;;;;13.72;100.00;99148.88;7388566;19;20022;-79
2022/09/14 03:45:18;;;;;;;0.70;0.70;;;;;;;13.66;100.00;99146.09;7391095;19;20373;-79
2022/09/14 03:47:45;;;;;;;0.60;0.60;;;;;;;13.74;100.00;99146.31;7388093;19;20018;-79
2022/09/14 03:50:13;;;;;;;4.78;0.90;;;;;;;13.79;100.00;99141.97;7391372;19;20015;-79
2022/09/14 03:52:39;;;;;;;0.93;0.40;;;;;;;13.88;100.00;99141.69;7386739;19;20018;-79
2022/09/14 03:55:08;;;;;;;3.10;1.05;;;;;;;13.87;100.00;99154.94;7393147;19;20029;-80
2022/09/14 03:57:34;;;;;;;0.40;0.40;;;;;;;13.98;100.00;99146.47;7388113;19;20014;-79
2022/09/14 04:00:00;;;;;;;0.98;0.32;;;;;;;14.00;100.00;99135.53;7387240;19;20046;-79
2022/09/14 04:02:28;;;;;;;2.10;0.57;;;;;;;14.09;100.00;99126.06;7387912;19;20361;-79
2022/09/14 04:04:54;;;;;;;0.73;0.73;;;;;;;14.11;100.00;99117.91;7391344;19;20018;-79
2022/09/14 04:07:20;;;;;;;4.75;1.30;;;;;;;14.04;100.00;99118.44;7387650;19;20018;-79
2022/09/14 04:09:46;;;;;;;1.42;0.85;;;;;;;14.16;100.00;99119.94;7385064;19;20086;-79
2022/09/14 04:12:13;;;;;;;1.58;0.35;;;;;;;14.18;100.00;99117.38;7383701;19;20014;-79
2022/09/14 04:14:39;;;;;;;0.50;0.50;;;;;;;14.30;100.00;99114.00;7386681;19;20378;-79
2022/09/14 04:17:05;;;;;;;1.50;0.85;;;;;;;14.46;100.00;99117.97;7387091;19;20094;-78
2022/09/14 04:19:36;;;;;;;0.50;0.47;;;;;;;14.55;100.00;99122.50;7385085;19;20491;-78
2022/09/14 04:22:03;;;;;;;1.70;0.82;;;;;;;14.44;100.00;99123.34;7388927;19;20029;-78
2022/09/14 04:24:30;;;;;;;0.93;0.20;;;;;;;14.35;100.00;99126.44;7389800;19;20011;-78
2022/09/14 04:26:56;;;;;;;1.58;1.10;;;;;;;14.45;100.00;99119.25;7389764;19;20017;-78
2022/09/14 04:29:22;;;;;;;0.80;0.70;;;;;;;14.52;100.00;99115.88;7386636;19;20025;-78
2022/09/14 04:31:48;;;;;;;0.65;0.65;;;;;;;14.56;100.00;99119.16;7387049;19;20022;-78
2022/09/14 04:34:14;;;;;;;0.80;0.60;;;;;;;14.66;100.00;99123.16;7389013;19;20607;-78
2022/09/14 04:36:40;;;;;;;1.05;0.40;;;;;;;14.68;100.00;99119.84;7386521;19;20014;-78
2022/09/14 04:39:12;;;;;;;0.75;0.65;;;;;;;14.76;100.00;99120.81;7384896;19;20078;-78
2022/09/14 04:41:39;;;;;;;2.92;0.40;;;;;;;14.86;100.00;99131.16;7385391;19;20447;-78
2022/09/14 04:44:05;;;;;;;0.47;0.47;;;;;;;15.01;100.00;99116.75;7385973;19;20015;-78
2022/09/14 04:46:35;;;;;;;0.73;0.73;;;;;;;15.04;100.00;99124.13;7388019;19;20018;-78
2022/09/14 04:49:02;;;;;;;0.57;0.50;;;;;;;15.03;100.00;99128.19;7384935;19;20492;-78
2022/09/14 04:51:30;;;;;;;1.75;0.93;;;;;;;15.11;100.00;99121.53;7388840;19;20017;-78
2022/09/14 04:53:58;;;;;;;0.32;0.32;;;;;;;15.26;100.00;99123.16;7385910;19;20029;-80
2022/09/14 04:56:25;;;;;;;0.45;0.45;;;;;;;15.33;100.00;99119.78;7387255;19;20472;-78
2022/09/14 04:59:00;;;;;;;0.65;0.65;;;;;;;15.29;100.00;99111.63;7386801;19;20023;-80
2022/09/14 05:01:36;;;;;;;1.52;0.50;;;;;;;15.25;100.00;99116.00;7388735;19;20032;-80
2022/09/14 05:04:04;;;;;;;1.38;0.50;;;;;;;15.23;100.00;99119.34;7386380;19;20018;-80
2022/09/14 05:06:32;;;;;;;0.75;0.60;;;;;;;15.28;100.00;99121.34;7387264;19;20015;-81
2022/09/14 05:09:00;;;;;;;2.25;0.63;;;;;;;15.36;100.00;99113.09;7386197;19;20086;-80
2022/09/14 05:11:30;;;;;;;5.55;0.95;;;;;;;15.39;100.00;99124.03;7383927;19;20246;-80
2022/09/14 05:13:57;;;;;;;1.35;0.88;;;;;;;15.42;100.00;99116.63;7385238;19;20021;-80
2022/09/14 05:16:25;;;;;;;0.50;0.50;;;;;;;15.41;100.00;99112.28;7385731;19;20025;-80
2022/09/14 05:18:57;;;;;;;1.75;0.73;;;;;;;15.40;100.00;99116.38;7385459;19;20014;-80
2022/09/14 05:21:24;;;;;;;1.55;0.35;;;;;;;15.31;100.00;99114.66;7389790;19;20018;-80
2022/09/14 05:23:55;;;;;;;1.30;0.73;;;;;;;15.34;100.00;99115.66;7384044;19;20673;-81
2022/09/14 05:26:23;;;;;;;0.32;0.25;;;;;;;15.08;100.00;99102.16;7387312;19;20102;-80
2022/09/14 05:28:52;;;;;;;1.75;1.13;;;;;;;15.12;100.00;99109.00;7384811;19;20019;-78
2022/09/14 05:31:19;;;;;;;1.30;0.68;;;;;;;15.14;100.00;99106.44;7384677;19;20501;-80
2022/09/14 05:33:48;;;;;;;0.52;0.52;;;;;;;15.12;100.00;99103.38;7382969;19;20401;-80
2022/09/14 05:36:15;;;;;;;0.80;0.80;;;;;;;15.20;100.00;99109.94;7383278;19;20349;-81
2022/09/14 05:38:42;;;;;;;1.08;0.47;;;;;;;15.22;100.00;99117.06;7386058;19;20571;-79
2022/09/14 05:41:11;;;;;;;0.40;0.40;;;;;;;15.30;100.00;99118.00;7386179;19;20015;-79
2022/09/14 05:43:37;;;;;;;3.47;1.73;;;;;;;15.31;100.00;99113.94;7384329;19;20023;-79
2022/09/14 05:46:15;;;;;;;8.80;1.92;;;;;;;15.35;100.00;99120.00;7384877;19;20014;-80
2022/09/14 05:48:42;;;;;;;11.23;1.88;;;;;;;15.36;100.00;99121.50;7383654;19;20037;-78
2022/09/14 05:51:12;;;;;;;8.43;2.15;;;;;;;15.36;100.00;99115.91;7386402;19;20018;-76
2022/09/14 05:53:39;;;;;;;6.90;2.22;;;;;;;15.45;100.00;99113.53;7384283;19;20018;-77
2022/09/14 05:56:11;;;;;;;4.40;2.15;;;;;;;15.46;100.00;99114.31;7384008;19;20018;-77
2022/09/14 05:58:39;;;;;;;4.18;2.22;;;;;;;15.45;100.00;99113.53;7383091;19;20075;-77
2022/09/14 06:01:17;;;;;;;14.63;3.58;;;;;;;15.65;100.00;99103.88;7383930;19;20022;-77
2022/09/14 06:03:44;;;;;;;4.18;1.70;;;;;;;15.59;100.00;99094.75;7384858;19;20032;-77
2022/09/14 06:06:13;;;;;;;5.75;2.03;;;;;;;15.49;100.00;99096.41;7384134;19;20505;-78
2022/09/14 06:08:39;;;;;;;12.30;2.10;;;;;;;15.55;100.00;99091.50;7381411;19;20086;-78
2022/09/14 06:11:13;;;;;;;9.65;2.50;;;;;;;15.42;100.00;99092.09;7383351;19;20018;-77
2022/09/14 06:13:40;;;;;;;3.70;1.63;;;;;;;15.41;100.00;99092.63;7385384;19;20288;-77
2022/09/14 06:16:10;;;;;;;9.30;2.15;;;;;;;15.40;100.00;99088.31;7383675;19;20014;-77
2022/09/14 06:18:38;;;;;;;6.65;2.20;;;;;;;15.47;100.00;99087.75;7381831;19;20018;-79
2022/09/14 06:21:05;;;;;;;0.95;0.93;;;;;;;15.45;100.00;99095.94;7385313;19;20077;-79
2022/09/14 06:23:32;;;;;;;1.15;0.70;;;;;;;15.42;100.00;99091.38;7383338;19;20022;-79
2022/09/14 06:26:00;;;;;;;2.47;2.15;;;;;;;15.47;100.00;99084.94;7382024;19;20387;-79
2022/09/14 06:28:27;;;;;;;9.75;2.38;;;;;;;15.56;100.00;99093.00;7385662;19;20153;-79
2022/09/14 06:30:54;;;;;;;8.00;1.98;;;;;;;15.52;100.00;99095.34;7387834;19;20018;-80
2022/09/14 06:33:20;;;;;;;3.63;1.95;;;;;;;15.51;100.00;99093.81;7380931;19;20023;-79
2022/09/14 06:36:01;;;;;;;8.45;1.55;;;;;;;15.43;100.00;99090.06;7390754;19;20422;-79
2022/09/14 06:38:29;;;;;;;3.35;1.30;;;;;;;15.47;100.00;99098.97;7389157;19;20085;-80
2022/09/14 06:41:00;;;;;;;1.73;0.93;;;;;;;15.73;100.00;99099.19;7395536;19;20018;-79
2022/09/14 06:43:28;;;;;;;3.45;1.42;;;;;;;15.78;100.00;99095.53;7395351;19;20022;-79
2022/09/14 06:45:55;;;;;;;3.47;1.25;;;;;;;15.84;100.00;99101.84;7392136;19;20033;-79
2022/09/14 06:48:21;;;;;;;5.45;2.10;;;;;;;15.84;100.00;99104.66;7394229;19;20018;-79
2022/09/14 06:50:47;;;;;;;1.17;0.82;;;;;;;15.93;100.00;99098.66;7394936;19;20021;-78
2022/09/14 06:53:14;;;;;;;2.47;1.10;;;;;;;16.06;100.00;99100.78;7390126;19;20022;-79
2022/09/14 06:55:40;;;;;;;1.17;1.08;;;;;;;16.15;100.00;99098.38;7396541;19;20018;-79
2022/09/14 06:58:08;;;;;;;1.20;1.08;;;;;;;16.19;100.00;99101.63;7396216;19;20021;-79
2022/09/14 07:00:34;;;;;;;2.35;1.40;;;;;;;16.28;100.00;99098.44;7391229;19;20044;-79
2022/09/14 07:03:01;;;;;;;7.95;1.55;;;;;;;16.50;100.00;99097.38;7391938;19;20057;-77
2022/09/14 07:05:27;;;;;;;3.45;1.45;;;;;;;16.39;100.00;99092.66;7389893;19;20019;-79
2022/09/14 07:07:53;;;;;;;1.83;1.13;;;;;;;16.11;100.00;99100.72;7390602;19;20364;-79
2022/09/14 07:10:19;;;;;;;6.45;1.55;;;;;;;16.16;100.00;99102.69;7390849;19;20018;-79
2022/09/14 07:12:45;;;;;;;2.88;1.42;;;;;;;15.91;100.00;99095.63;7388852;19;20464;-79
2022/09/14 07:15:12;;;;;;;2.90;0.82;;;;;;;15.83;100.00;99097.53;7388519;19;20459;-79
2022/09/14 07:17:38;;;;;;;4.22;1.73;;;;;;;16.58;100.00;99099.03;7391908;19;20018;-79
2022/09/14 07:20:06;;;;;;;2.03;1.17;;;;;;;16.54;100.00;99095.00;7390474;19;20018;-80
2022/09/14 07:22:33;;;;;;;6.53;1.42;;;;;;;16.87;100.00;99096.53;7392968;19;20014;-79
2022/09/14 07:24:59;;;;;;;2.22;1.52;;;;;;;17.22;100.00;99104.56;7391610;19;20476;-80
2022/09/14 07:27:25;;;;;;;8.38;1.25;;;;;;;17.33;100.00;99093.09;7391955;19;20502;-79
2022/09/14 07:29:52;;;;;;;1.70;0.82;;;;;;;17.36;100.00;99092.81;7392193;19;20018;-79
2022/09/14 07:32:18;;;;;;;4.13;1.25;;;;;;;17.36;100.00;99098.44;7391268;19;20583;-76
2022/09/14 07:34:45;;;;;;;3.65;1.00;;;;;;;17.45;100.00;99100.06;7392225;19;20022;-79
2022/09/14 07:37:12;;;;;;;4.05;1.05;;;;;;;17.45;100.00;99102.88;7392763;19;20031;-79
2022/09/14 07:39:38;;;;;;;1.20;0.60;;;;;;;17.63;100.00;99104.84;7388868;19;20465;-80
2022/09/14 07:42:04;;;;;;;2.30;1.00;;;;;;;17.75;100.00;99103.31;7388107;19;20021;-79
2022/09/14 07:44:30;;;;;;;1.33;0.52;;;;;;;18.19;100.00;99105.19;7391489;19;20014;-78
2022/09/14 07:46:56;;;;;;;1.67;0.63;;;;;;;18.42;100.00;99104.69;7389997;19;20464;-79
2022/09/14 07:49:23;;;;;;;0.52;0.30;;;;;;;18.55;100.00;99110.31;7390792;19;20017;-79
2022/09/14 07:51:51;;;;;;;2.47;0.35;;;;;;;18.76;100.00;99094.13;7390458;19;20031;-79
2022/09/14 07:54:18;;;;;;;2.65;0.32;;;;;;;19.09;100.00;99093.31;7389581;19;20011;-78
2022/09/14 07:56:45;;;;;;;2.58;0.40;;;;;;;19.24;100.00;99089.81;7391914;19;20346;-78
2022/09/14 07:59:13;;;;;;;0.75;0.75;;;;;;;19.35;100.00;99084.69;7390181;19;20018;-79
2022/09/14 08:01:39;;;;;;;5.05;0.57;;;;;;;19.28;100.00;99088.16;7389095;19;20025;-78
2022/09/14 08:04:06;;;;;;;0.43;0.40;;;;;;;19.40;100.00;99083.78;7389135;19;20015;-79
2022/09/14 08:06:32;;;;;;;0.82;0.40;;;;;;;19.52;100.00;99084.97;7391638;19;20011;-79
2022/09/14 08:08:58;;;;;;;0.40;0.30;;;;;;;19.37;100.00;99084.13;7389163;19;20014;-78
2022/09/14 08:11:30;;;;;;;0.47;0.40;;;;;;;19.64;100.00;99072.03;7388908;19;20022;-79
2022/09/14 08:13:58;;;;;;;0.20;0.10;;;;;;;19.88;100.00;99075.75;7389963;19;20015;-79
2022/09/14 08:16:27;;;;;;;0.40;0.30;;;;;;;20.09;100.00;99067.91;7389195;19;20018;-79
2022/09/14 08:19:01;;;;;;;0.40;0.22;;;;;;;20.14;100.00;99069.81;7388788;19;20018;-79
2022/09/14 08:21:29;;;;;;;0.15;0.15;;;;;;;20.18;100.00;99058.88;7391566;19;20289;-79
2022/09/14 08:23:56;;;;;;;1.80;0.28;;;;;;;20.37;100.00;99062.16;7391447;19;20027;-79
2022/09/14 08:26:25;;;;;;;0.73;0.20;;;;;;;20.42;100.00;99066.91;7389906;19;20464;-79
2022/09/14 08:28:52;;;;;;;0.43;0.40;;;;;;;20.45;100.00;99065.00;7386466;19;20114;-79
2022/09/14 08:31:23;;;;;;;0.55;0.30;;;;;;;20.36;100.00;99078.38;7387390;19;20015;-79
2022/09/14 08:33:53;;;;;;;0.80;0.40;;;;;;;20.45;100.00;99082.72;7387901;19;20407;-79
2022/09/14 08:36:21;;;;;;;1.10;0.45;;;;;;;20.52;100.00;99087.66;7387983;19;20011;-79
2022/09/14 08:38:48;;;;;;;0.20;0.10;;;;;;;20.57;100.00;99088.81;7386075;19;20034;-79
2022/09/14 08:41:17;;;;;;;2.03;0.25;;;;;;;20.58;100.00;99088.22;7388353;19;20397;-79
2022/09/14 08:43:43;;;;;;;5.20;0.40;;;;;;;20.71;100.00;99082.41;7387517;19;20389;-78
2022/09/14 08:46:21;;;;;;;4.57;0.30;;;;;;;20.75;100.00;99082.00;7387511;19;20349;-78
2022/09/14 08:48:48;;;;;;;2.03;0.32;;;;;;;20.73;100.00;99074.09;7390048;19;20022;-80
2022/09/14 08:51:15;;;;;;;0.35;0.20;;;;;;;20.73;100.00;99073.34;7388833;19;20019;-77
2022/09/14 08:53:41;;;;;;;0.15;0.13;;;;;;;20.78;100.00;99076.00;7388784;19;20026;-77
2022/09/14 08:56:29;;;;;;;5.38;1.02;;;;;;;20.78;100.00;99081.66;7387532;19;20018;-78
2022/09/14 08:59:04;;;;;;;0.45;0.20;;;;;;;20.98;100.00;99092.06;7385086;19;20391;-77
2022/09/14 09:01:42;;;;;;;0.35;0.30;;;;;;;20.92;100.00;99087.91;7387229;19;20328;-76
2022/09/14 09:04:35;;;;;;;0.88;0.10;;;;;;;20.85;100.00;99086.56;7387830;19;20037;-75
2022/09/14 09:07:07;;;;;;;0.10;0.10;;;;;;;20.81;100.00;99091.84;7388727;19;20043;-75
2022/09/14 09:09:42;;;;;;;4.78;0.68;;;;;;;20.57;100.00;99080.31;7385269;19;20457;-75
2022/09/14 09:12:15;;;;;;;0.63;0.30;;;;;;;20.57;100.00;99078.25;7388169;19;20018;-75
2022/09/14 09:14:54;;;;;;;5.25;1.42;;;;;;;20.47;100.00;99080.09;7386753;19;20022;-76
2022/09/14 09:17:32;;;;;;;0.60;0.28;;;;;;;20.56;100.00;99088.03;7386966;19;20081;-75
2022/09/14 09:20:19;;;;;;;3.70;0.75;;;;;;;20.96;100.00;99091.84;7387420;19;20022;-75
2022/09/14 09:23:20;;;;;;;1.38;0.80;;;;;;;21.03;100.00;99096.03;7387942;19;20022;-78
2022/09/14 09:25:52;;;;;;;;;;;;;;;21.22;100.00;99101.31;7387533;19;20030;-75
2022/09/14 09:28:19;;;;;;;3.05;0.10;;;;;;;21.25;100.00;99094.50;7388880;19;19934;-75
2022/09/14 09:30:45;;;;;;;0.95;0.50;;;;;;;21.25;100.00;99097.34;7385328;19;20019;-75
2022/09/14 09:33:20;;;;;;;0.38;0.30;;;;;;;21.07;100.00;99096.44;7382564;19;20011;-78
2022/09/14 09:36:01;;;;;;;1.23;0.40;;;;;;;21.16;100.00;99092.28;7383093;19;20019;-76
2022/09/14 09:38:29;;;;;;;0.63;0.17;;;;;;;21.04;100.00;99103.97;7383275;19;20025;-75
2022/09/14 09:41:25;;;;;;;5.22;0.47;;;;;;;21.32;100.00;99090.91;7383414;19;20096;-75
2022/09/14 09:44:00;;;;;;;0.45;0.30;;;;;;;21.36;100.00;99099.78;7386105;19;20022;-75
2022/09/14 09:46:33;;;;;;;0.93;0.70;;;;;;;21.14;100.00;99093.56;7385549;19;20026;-75
2022/09/14 09:49:03;;;;;;;0.90;0.43;;;;;;;21.10;100.00;99096.03;7383307;19;20020;-75
2022/09/14 09:51:31;;;;;;;0.40;0.40;;;;;;;21.42;100.00;99097.53;7389286;19;20027;-75
2022/09/14 09:54:17;;;;;;;0.60;0.22;;;;;;;21.48;100.00;99106.56;7386209;19;21024;-77
2022/09/14 09:56:56;;;;;;;1.33;0.47;;;;;;;21.53;100.00;99097.09;7387256;19;20018;-77
2022/09/14 09:59:35;;;;;;;0.35;0.20;;;;;;;21.57;100.00;99101.06;7386086;19;20368;-77
2022/09/14 10:02:27;;;;;;;2.47;0.57;;;;;;;21.33;100.00;99095.28;7389996;19;20055;-77
2022/09/14 10:05:09;;;;;;;0.95;0.35;;;;;;;21.77;100.00;99097.25;7383902;19;20719;-77
2022/09/14 10:07:49;;;;;;;0.30;0.20;;;;;;;21.96;100.00;99093.25;7384171;19;20023;-78
2022/09/14 10:10:18;;;;;;;6.72;0.68;;;;;;;21.83;100.00;99091.38;7393099;19;20022;-77
2022/09/14 10:12:48;;;;;;;0.60;0.43;;;;;;;21.63;100.00;99089.53;7393851;19;20018;-77
2022/09/14 10:15:16;;;;;;;2.40;0.85;;;;;;;21.48;100.00;99096.00;7393200;19;20019;-77
2022/09/14 10:18:12;;;;;;;2.58;1.13;;;;;;;20.97;100.00;99084.88;7395937;19;20478;-77
2022/09/14 10:20:42;;;;;;;3.40;0.77;;;;;;;20.52;100.00;99089.72;7395218;19;20023;-77
2022/09/14 10:23:30;;;;;;;3.63;0.68;;;;;;;20.98;100.00;99094.88;7394017;19;20018;-78
2022/09/14 10:26:11;;;;;;;1.00;0.22;;;;;;;21.07;100.00;99085.81;7393580;19;20022;-77
2022/09/14 10:28:41;;;;;;;1.30;0.50;;;;;;;21.21;100.00;99086.41;7396235;19;20018;-77
2022/09/14 10:31:10;;;;;;;3.03;0.30;;;;;;;21.12;100.00;99087.72;7391231;19;20019;-76
2022/09/14 10:33:37;;;;;;;0.20;0.20;;;;;;;21.19;100.00;99091.88;7392233;19;20086;-77
2022/09/14 10:36:10;;;;;;;3.22;0.43;;;;;;;21.16;100.00;99089.44;7391871;19;20515;-77
2022/09/14 10:38:42;;;;;;;1.45;0.57;;;;;;;21.08;100.00;99093.03;7389327;19;20045;-77
2022/09/14 10:41:21;;;;;;;4.00;0.85;;;;;;;20.87;100.00;99083.16;7392420;19;20010;-77
2022/09/14 10:44:07;;;;;;;2.33;0.63;;;;;;;20.20;100.00;99084.53;7395062;19;20019;-77
2022/09/14 10:46:56;;;;;;;10.05;1.13;;;;;;;20.38;100.00;99083.47;7389969;19;20011;-77
2022/09/14 10:49:36;;;;;;;7.88;0.63;;;;;;;20.50;100.00;99090.28;7391544;19;20042;-81
2022/09/14 10:52:25;;;;;;;1.80;0.63;;;;;;;20.53;100.00;99091.97;7392067;19;20041;-79
2022/09/14 10:55:03;;;;;;;0.65;0.38;;;;;;;20.61;100.00;99092.00;7389379;19;20023;-77
2022/09/14 10:57:32;;;;;;;1.60;0.22;;;;;;;20.67;100.00;99084.84;7389521;19;20358;-79
2022/09/14 11:00:19;;;;;;;5.07;0.57;;;;;;;20.83;100.00;99083.56;7390254;19;20014;-79
2022/09/14 11:03:23;;;;;;;1.42;0.17;;;;;;;20.75;100.00;99088.44;7388416;19;20382;-79
2022/09/14 11:05:49;;;;;;;1.75;1.02;;;;;;;20.61;100.00;99084.28;7392990;19;20037;-79
2022/09/14 11:08:18;;;;;;;0.85;0.40;;;;;;;20.66;100.00;99091.81;7392668;19;20619;-78
2022/09/14 11:11:22;;;;;;;0.75;0.28;;;;;;;20.67;100.00;99084.09;7391651;19;20050;-78
2022/09/14 11:13:57;;;;;;;0.30;0.20;;;;;;;20.69;100.00;99090.69;7389074;19;20365;-79
2022/09/14 11:16:49;;;;;;;0.32;0.13;;;;;;;20.76;100.00;99087.13;7389615;19;20285;-79
2022/09/14 11:19:42;;;;;;;0.90;0.52;;;;;;;20.78;100.00;99098.63;7387165;19;20398;-77
2022/09/14 11:22:15;;;;;;;0.80;0.40;;;;;;;20.70;100.00;99092.22;7387877;19;20028;-77
2022/09/14 11:24:47;;;;;;;0.65;0.17;;;;;;;20.76;100.00;99095.63;7390792;19;20041;-77
2022/09/14 11:27:24;;;;;;;5.13;0.28;;;;;;;20.98;100.00;99100.53;7391046;19;20406;-78
2022/09/14 11:29:56;;;;;;;2.38;0.88;;;;;;;21.00;100.00;99097.91;7386043;19;20444;-78
2022/09/14 11:32:40;;;;;;;1.77;0.73;;;;;;;21.06;100.00;99107.00;7389868;19;20385;-77
2022/09/14 11:35:22;;;;;;;3.60;0.90;;;;;;;21.18;100.00;99095.28;7393384;19;20488;-77
2022/09/14 11:37:59;;;;;;;0.90;0.88;;;;;;;21.42;100.00;99100.38;7390091;19;20045;-77
2022/09/14 11:40:45;;;;;;;1.45;0.40;;;;;;;21.76;100.00;99100.66;7390761;19;20517;-77
2022/09/14 11:43:26;;;;;;;1.10;0.57;;;;;;;21.88;100.00;99094.03;7387505;19;20031;-78
2022/09/14 11:45:54;;;;;;;;;;;;;;;21.98;100.00;99108.38;7393914;19;20021;-78
2022/09/14 11:48:33;;;;;;;1.08;0.43;;;;;;;22.12;100.00;99101.13;7388542;19;19938;-77